sensor_id;sensor_type;location;lat;lon;timestamp;P1;durP1;ratioP1;P2;durP2;ratioP2
66437;SDS011;54537;47.972;11.662;2023-12-20T00:01:04;3.38;;;1.50;;
66437;SDS011;54537;47.972;11.662;2023-12-20T00:03:31;5.20;;;1.73;;
66437;SDS011;54537;47.972;11.662;2023-12-20T00:05:57;4.78;;;1.52;;
66437;SDS011;54537;47.972;11.662;2023-12-20T00:08:24;3.70;;;1.55;;
66437;SDS011;54537;47.972;11.662;2023-12-20T00:10:50;4.68;;;2.00;;
66437;SDS011;54537;47.972;11.662;2023-12-20T00:13:18;3.70;;;1.52;;
66437;SDS011;54537;47.972;11.662;2023-12-20T00:15:45;4.65;;;2.00;;
66437;SDS011;54537;47.972;11.662;2023-12-20T00:18:12;4.75;;;1.70;;
66437;SDS011;54537;47.972;11.662;2023-12-20T00:20:38;4.70;;;2.00;;
66437;SDS011;54537;47.972;11.662;2023-12-20T00:23:05;6.38;;;2.17;;
66437;SDS011;54537;47.972;11.662;2023-12-20T00:25:33;4.32;;;1.92;;
66437;SDS011;54537;47.972;11.662;2023-12-20T00:27:59;3.85;;;1.80;;
66437;SDS011;54537;47.972;11.662;2023-12-20T00:30:27;4.28;;;1.85;;
66437;SDS011;54537;47.972;11.662;2023-12-20T00:32:55;6.00;;;2.10;;
66437;SDS011;54537;47.972;11.662;2023-12-20T00:35:22;4.80;;;1.80;;
66437;SDS011;54537;47.972;11.662;2023-12-20T00:37:48;6.78;;;2.05;;
66437;SDS011;54537;47.972;11.662;2023-12-20T00:40:15;2.88;;;1.50;;
66437;SDS011;54537;47.972;11.662;2023-12-20T00:42:42;4.88;;;1.98;;
66437;SDS011;54537;47.972;11.662;2023-12-20T00:45:08;5.28;;;2.17;;
66437;SDS011;54537;47.972;11.662;2023-12-20T00:47:37;6.32;;;1.98;;
66437;SDS011;54537;47.972;11.662;2023-12-20T00:50:03;3.65;;;2.10;;
66437;SDS011;54537;47.972;11.662;2023-12-20T00:52:31;4.90;;;1.83;;
66437;SDS011;54537;47.972;11.662;2023-12-20T00:54:57;5.53;;;2.15;;
66437;SDS011;54537;47.972;11.662;2023-12-20T00:57:24;4.78;;;1.80;;
66437;SDS011;54537;47.972;11.662;2023-12-20T00:59:50;5.10;;;2.17;;
66437;SDS011;54537;47.972;11.662;2023-12-20T01:02:17;5.05;;;2.20;;
66437;SDS011;54537;47.972;11.662;2023-12-20T01:04:45;4.30;;;1.80;;
66437;SDS011;54537;47.972;11.662;2023-12-20T01:07:12;6.60;;;2.50;;
66437;SDS011;54537;47.972;11.662;2023-12-20T01:09:39;3.97;;;1.80;;
66437;SDS011;54537;47.972;11.662;2023-12-20T01:12:05;5.47;;;2.38;;
66437;SDS011;54537;47.972;11.662;2023-12-20T01:14:32;4.13;;;1.83;;
66437;SDS011;54537;47.972;11.662;2023-12-20T01:16:59;5.93;;;1.80;;
66437;SDS011;54537;47.972;11.662;2023-12-20T01:19:25;4.88;;;1.85;;
66437;SDS011;54537;47.972;11.662;2023-12-20T01:21:54;4.47;;;1.80;;
66437;SDS011;54537;47.972;11.662;2023-12-20T01:24:21;3.88;;;1.90;;
66437;SDS011;54537;47.972;11.662;2023-12-20T01:26:48;4.40;;;1.90;;
66437;SDS011;54537;47.972;11.662;2023-12-20T01:29:14;4.45;;;1.98;;
66437;SDS011;54537;47.972;11.662;2023-12-20T01:31:41;8.63;;;2.05;;
66437;SDS011;54537;47.972;11.662;2023-12-20T01:34:07;3.78;;;1.77;;
66437;SDS011;54537;47.972;11.662;2023-12-20T01:36:34;4.63;;;1.95;;
66437;SDS011;54537;47.972;11.662;2023-12-20T01:39:02;5.68;;;2.40;;
66437;SDS011;54537;47.972;11.662;2023-12-20T01:41:29;5.88;;;1.92;;
66437;SDS011;54537;47.972;11.662;2023-12-20T01:43:55;4.88;;;2.20;;
66437;SDS011;54537;47.972;11.662;2023-12-20T01:46:22;6.00;;;1.92;;
66437;SDS011;54537;47.972;11.662;2023-12-20T01:48:49;4.43;;;1.95;;
66437;SDS011;54537;47.972;11.662;2023-12-20T01:51:15;6.13;;;2.00;;
66437;SDS011;54537;47.972;11.662;2023-12-20T01:53:42;4.88;;;2.15;;
66437;SDS011;54537;47.972;11.662;2023-12-20T01:56:11;4.47;;;2.00;;
66437;SDS011;54537;47.972;11.662;2023-12-20T01:58:38;5.57;;;2.08;;
66437;SDS011;54537;47.972;11.662;2023-12-20T02:01:05;6.25;;;2.20;;
66437;SDS011;54537;47.972;11.662;2023-12-20T02:03:32;5.70;;;2.10;;
66437;SDS011;54537;47.972;11.662;2023-12-20T02:06:01;5.50;;;2.30;;
66437;SDS011;54537;47.972;11.662;2023-12-20T02:08:28;5.10;;;1.77;;
66437;SDS011;54537;47.972;11.662;2023-12-20T02:10:55;5.70;;;2.25;;
66437;SDS011;54537;47.972;11.662;2023-12-20T02:13:23;4.40;;;1.80;;
66437;SDS011;54537;47.972;11.662;2023-12-20T02:15:51;4.22;;;1.88;;
66437;SDS011;54537;47.972;11.662;2023-12-20T02:18:18;5.90;;;2.30;;
66437;SDS011;54537;47.972;11.662;2023-12-20T02:20:45;5.22;;;1.98;;
66437;SDS011;54537;47.972;11.662;2023-12-20T02:23:12;6.57;;;2.13;;
66437;SDS011;54537;47.972;11.662;2023-12-20T02:25:39;5.57;;;1.70;;
66437;SDS011;54537;47.972;11.662;2023-12-20T02:28:06;5.82;;;1.92;;
66437;SDS011;54537;47.972;11.662;2023-12-20T02:30:32;5.40;;;2.00;;
66437;SDS011;54537;47.972;11.662;2023-12-20T02:32:59;4.53;;;2.08;;
66437;SDS011;54537;47.972;11.662;2023-12-20T02:35:26;4.38;;;2.08;;
66437;SDS011;54537;47.972;11.662;2023-12-20T02:37:52;3.67;;;1.77;;
66437;SDS011;54537;47.972;11.662;2023-12-20T02:40:20;5.05;;;1.95;;
66437;SDS011;54537;47.972;11.662;2023-12-20T02:42:47;3.40;;;1.83;;
66437;SDS011;54537;47.972;11.662;2023-12-20T02:45:13;4.65;;;1.85;;
66437;SDS011;54537;47.972;11.662;2023-12-20T02:47:40;2.72;;;1.33;;
66437;SDS011;54537;47.972;11.662;2023-12-20T02:50:07;6.13;;;2.00;;
66437;SDS011;54537;47.972;11.662;2023-12-20T02:52:34;4.63;;;1.95;;
66437;SDS011;54537;47.972;11.662;2023-12-20T02:55:00;5.05;;;2.15;;
66437;SDS011;54537;47.972;11.662;2023-12-20T02:57:28;4.90;;;2.03;;
66437;SDS011;54537;47.972;11.662;2023-12-20T02:59:55;4.78;;;1.90;;
66437;SDS011;54537;47.972;11.662;2023-12-20T03:02:21;5.57;;;1.95;;
66437;SDS011;54537;47.972;11.662;2023-12-20T03:04:48;7.10;;;2.08;;
66437;SDS011;54537;47.972;11.662;2023-12-20T03:07:15;5.82;;;2.05;;
66437;SDS011;54537;47.972;11.662;2023-12-20T03:09:42;4.88;;;2.08;;
66437;SDS011;54537;47.972;11.662;2023-12-20T03:12:08;3.65;;;1.70;;
66437;SDS011;54537;47.972;11.662;2023-12-20T03:14:36;3.78;;;1.90;;
66437;SDS011;54537;47.972;11.662;2023-12-20T03:17:03;5.70;;;2.00;;
66437;SDS011;54537;47.972;11.662;2023-12-20T03:19:29;4.38;;;1.70;;
66437;SDS011;54537;47.972;11.662;2023-12-20T03:21:56;5.53;;;2.00;;
66437;SDS011;54537;47.972;11.662;2023-12-20T03:24:25;6.80;;;1.73;;
66437;SDS011;54537;47.972;11.662;2023-12-20T03:26:52;4.72;;;1.80;;
66437;SDS011;54537;47.972;11.662;2023-12-20T03:29:19;7.07;;;1.98;;
66437;SDS011;54537;47.972;11.662;2023-12-20T03:31:47;4.70;;;2.00;;
66437;SDS011;54537;47.972;11.662;2023-12-20T03:34:13;4.82;;;2.00;;
66437;SDS011;54537;47.972;11.662;2023-12-20T03:36:40;3.72;;;1.67;;
66437;SDS011;54537;47.972;11.662;2023-12-20T03:39:07;3.97;;;1.63;;
66437;SDS011;54537;47.972;11.662;2023-12-20T03:41:35;4.75;;;1.58;;
66437;SDS011;54537;47.972;11.662;2023-12-20T03:44:01;4.43;;;1.60;;
66437;SDS011;54537;47.972;11.662;2023-12-20T03:46:28;5.28;;;1.80;;
66437;SDS011;54537;47.972;11.662;2023-12-20T03:48:56;3.72;;;1.67;;
66437;SDS011;54537;47.972;11.662;2023-12-20T03:51:22;3.55;;;1.55;;
66437;SDS011;54537;47.972;11.662;2023-12-20T03:53:49;2.55;;;1.50;;
66437;SDS011;54537;47.972;11.662;2023-12-20T03:56:15;3.85;;;1.63;;
66437;SDS011;54537;47.972;11.662;2023-12-20T03:58:42;2.88;;;1.30;;
66437;SDS011;54537;47.972;11.662;2023-12-20T04:01:09;3.60;;;1.80;;
66437;SDS011;54537;47.972;11.662;2023-12-20T04:03:36;3.50;;;1.63;;
66437;SDS011;54537;47.972;11.662;2023-12-20T04:06:04;3.85;;;1.85;;
66437;SDS011;54537;47.972;11.662;2023-12-20T04:08:31;3.40;;;1.23;;
66437;SDS011;54537;47.972;11.662;2023-12-20T04:10:58;3.92;;;1.13;;
66437;SDS011;54537;47.972;11.662;2023-12-20T04:13:24;3.40;;;1.35;;
66437;SDS011;54537;47.972;11.662;2023-12-20T04:15:51;3.10;;;1.50;;
66437;SDS011;54537;47.972;11.662;2023-12-20T04:18:17;3.58;;;1.23;;
66437;SDS011;54537;47.972;11.662;2023-12-20T04:20:44;2.33;;;1.10;;
66437;SDS011;54537;47.972;11.662;2023-12-20T04:23:15;2.90;;;1.27;;
66437;SDS011;54537;47.972;11.662;2023-12-20T04:25:42;3.25;;;1.33;;
66437;SDS011;54537;47.972;11.662;2023-12-20T04:28:09;3.33;;;1.10;;
66437;SDS011;54537;47.972;11.662;2023-12-20T04:30:35;2.33;;;1.02;;
66437;SDS011;54537;47.972;11.662;2023-12-20T04:33:02;2.40;;;1.15;;
66437;SDS011;54537;47.972;11.662;2023-12-20T04:35:29;2.47;;;1.13;;
66437;SDS011;54537;47.972;11.662;2023-12-20T04:37:55;2.58;;;1.00;;
66437;SDS011;54537;47.972;11.662;2023-12-20T04:40:23;1.75;;;0.82;;
66437;SDS011;54537;47.972;11.662;2023-12-20T04:42:50;3.80;;;1.00;;
66437;SDS011;54537;47.972;11.662;2023-12-20T04:45:16;2.13;;;0.90;;
66437;SDS011;54537;47.972;11.662;2023-12-20T04:47:44;1.77;;;0.90;;
66437;SDS011;54537;47.972;11.662;2023-12-20T04:50:12;3.65;;;1.08;;
66437;SDS011;54537;47.972;11.662;2023-12-20T04:52:39;1.42;;;0.90;;
66437;SDS011;54537;47.972;11.662;2023-12-20T04:55:06;2.25;;;1.00;;
66437;SDS011;54537;47.972;11.662;2023-12-20T04:57:35;1.70;;;0.90;;
66437;SDS011;54537;47.972;11.662;2023-12-20T05:00:01;4.25;;;0.95;;
66437;SDS011;54537;47.972;11.662;2023-12-20T05:02:29;1.48;;;1.00;;
66437;SDS011;54537;47.972;11.662;2023-12-20T05:04:56;2.28;;;0.80;;
66437;SDS011;54537;47.972;11.662;2023-12-20T05:07:22;1.70;;;0.80;;
66437;SDS011;54537;47.972;11.662;2023-12-20T05:09:49;2.00;;;1.00;;
66437;SDS011;54537;47.972;11.662;2023-12-20T05:12:16;1.65;;;0.80;;
66437;SDS011;54537;47.972;11.662;2023-12-20T05:14:44;3.08;;;0.80;;
66437;SDS011;54537;47.972;11.662;2023-12-20T05:17:10;1.33;;;0.63;;
66437;SDS011;54537;47.972;11.662;2023-12-20T05:19:37;2.25;;;1.00;;
66437;SDS011;54537;47.972;11.662;2023-12-20T05:22:03;2.00;;;0.90;;
66437;SDS011;54537;47.972;11.662;2023-12-20T05:24:30;1.63;;;0.90;;
66437;SDS011;54537;47.972;11.662;2023-12-20T05:26:57;2.20;;;1.10;;
66437;SDS011;54537;47.972;11.662;2023-12-20T05:29:23;3.25;;;1.20;;
66437;SDS011;54537;47.972;11.662;2023-12-20T05:31:51;3.20;;;1.10;;
66437;SDS011;54537;47.972;11.662;2023-12-20T05:34:18;1.60;;;0.77;;
66437;SDS011;54537;47.972;11.662;2023-12-20T05:36:45;1.90;;;1.10;;
66437;SDS011;54537;47.972;11.662;2023-12-20T05:39:11;1.85;;;1.23;;
66437;SDS011;54537;47.972;11.662;2023-12-20T05:41:38;2.08;;;0.95;;
66437;SDS011;54537;47.972;11.662;2023-12-20T05:44:05;2.45;;;0.98;;
66437;SDS011;54537;47.972;11.662;2023-12-20T05:46:31;1.88;;;0.80;;
66437;SDS011;54537;47.972;11.662;2023-12-20T05:48:59;1.70;;;0.95;;
66437;SDS011;54537;47.972;11.662;2023-12-20T05:51:26;2.58;;;1.05;;
66437;SDS011;54537;47.972;11.662;2023-12-20T05:53:52;2.00;;;1.00;;
66437;SDS011;54537;47.972;11.662;2023-12-20T05:56:19;1.45;;;0.80;;
66437;SDS011;54537;47.972;11.662;2023-12-20T05:58:46;3.03;;;0.85;;
66437;SDS011;54537;47.972;11.662;2023-12-20T06:01:14;5.90;;;1.58;;
66437;SDS011;54537;47.972;11.662;2023-12-20T06:03:42;1.70;;;0.90;;
66437;SDS011;54537;47.972;11.662;2023-12-20T06:06:10;3.83;;;0.98;;
66437;SDS011;54537;47.972;11.662;2023-12-20T06:08:37;4.43;;;1.00;;
66437;SDS011;54537;47.972;11.662;2023-12-20T06:11:04;1.35;;;0.85;;
66437;SDS011;54537;47.972;11.662;2023-12-20T06:13:31;1.10;;;0.70;;
66437;SDS011;54537;47.972;11.662;2023-12-20T06:15:58;1.35;;;0.70;;
66437;SDS011;54537;47.972;11.662;2023-12-20T06:18:24;1.95;;;0.65;;
66437;SDS011;54537;47.972;11.662;2023-12-20T06:20:51;1.58;;;0.80;;
66437;SDS011;54537;47.972;11.662;2023-12-20T06:23:19;0.80;;;0.60;;
66437;SDS011;54537;47.972;11.662;2023-12-20T06:25:45;2.22;;;0.88;;
66437;SDS011;54537;47.972;11.662;2023-12-20T06:28:12;1.65;;;0.60;;
66437;SDS011;54537;47.972;11.662;2023-12-20T06:30:39;1.20;;;0.60;;
66437;SDS011;54537;47.972;11.662;2023-12-20T06:33:06;1.17;;;0.82;;
66437;SDS011;54537;47.972;11.662;2023-12-20T06:35:34;0.70;;;0.70;;
66437;SDS011;54537;47.972;11.662;2023-12-20T06:38:01;2.42;;;0.80;;
66437;SDS011;54537;47.972;11.662;2023-12-20T06:40:29;1.67;;;0.70;;
66437;SDS011;54537;47.972;11.662;2023-12-20T06:42:56;1.08;;;0.73;;
66437;SDS011;54537;47.972;11.662;2023-12-20T06:45:23;1.42;;;0.73;;
66437;SDS011;54537;47.972;11.662;2023-12-20T06:47:49;2.30;;;0.88;;
66437;SDS011;54537;47.972;11.662;2023-12-20T06:50:16;4.18;;;0.98;;
66437;SDS011;54537;47.972;11.662;2023-12-20T06:52:42;3.05;;;1.27;;
66437;SDS011;54537;47.972;11.662;2023-12-20T06:55:09;4.78;;;1.08;;
66437;SDS011;54537;47.972;11.662;2023-12-20T06:57:37;0.98;;;0.60;;
66437;SDS011;54537;47.972;11.662;2023-12-20T07:00:04;1.98;;;0.70;;
66437;SDS011;54537;47.972;11.662;2023-12-20T07:02:31;1.67;;;0.80;;
66437;SDS011;54537;47.972;11.662;2023-12-20T07:04:58;1.70;;;0.63;;
66437;SDS011;54537;47.972;11.662;2023-12-20T07:07:25;1.83;;;0.73;;
66437;SDS011;54537;47.972;11.662;2023-12-20T07:09:51;0.43;;;0.30;;
66437;SDS011;54537;47.972;11.662;2023-12-20T07:12:18;2.25;;;0.70;;
66437;SDS011;54537;47.972;11.662;2023-12-20T07:14:46;3.08;;;0.60;;
66437;SDS011;54537;47.972;11.662;2023-12-20T07:17:13;0.85;;;0.50;;
66437;SDS011;54537;47.972;11.662;2023-12-20T07:19:40;1.05;;;0.75;;
66437;SDS011;54537;47.972;11.662;2023-12-20T07:22:07;1.83;;;0.80;;
66437;SDS011;54537;47.972;11.662;2023-12-20T07:24:34;1.52;;;0.80;;
66437;SDS011;54537;47.972;11.662;2023-12-20T07:27:01;1.65;;;0.73;;
66437;SDS011;54537;47.972;11.662;2023-12-20T07:29:27;1.40;;;0.80;;
66437;SDS011;54537;47.972;11.662;2023-12-20T07:31:56;2.42;;;1.00;;
66437;SDS011;54537;47.972;11.662;2023-12-20T07:34:22;5.35;;;0.68;;
66437;SDS011;54537;47.972;11.662;2023-12-20T07:36:49;0.98;;;0.52;;
66437;SDS011;54537;47.972;11.662;2023-12-20T07:39:15;0.55;;;0.55;;
66437;SDS011;54537;47.972;11.662;2023-12-20T07:41:42;1.48;;;0.73;;
66437;SDS011;54537;47.972;11.662;2023-12-20T07:44:08;0.80;;;0.60;;
66437;SDS011;54537;47.972;11.662;2023-12-20T07:46:35;0.60;;;0.60;;
66437;SDS011;54537;47.972;11.662;2023-12-20T07:49:03;1.40;;;0.82;;
66437;SDS011;54537;47.972;11.662;2023-12-20T07:51:30;1.30;;;0.73;;
66437;SDS011;54537;47.972;11.662;2023-12-20T07:53:56;0.85;;;0.50;;
66437;SDS011;54537;47.972;11.662;2023-12-20T07:56:23;1.00;;;0.68;;
66437;SDS011;54537;47.972;11.662;2023-12-20T07:58:49;1.63;;;1.02;;
66437;SDS011;54537;47.972;11.662;2023-12-20T08:01:16;1.45;;;0.70;;
66437;SDS011;54537;47.972;11.662;2023-12-20T08:03:43;1.33;;;0.60;;
66437;SDS011;54537;47.972;11.662;2023-12-20T08:06:12;1.25;;;0.77;;
66437;SDS011;54537;47.972;11.662;2023-12-20T08:08:39;1.17;;;0.90;;
66437;SDS011;54537;47.972;11.662;2023-12-20T08:11:06;1.33;;;0.95;;
66437;SDS011;54537;47.972;11.662;2023-12-20T08:13:32;0.80;;;0.50;;
66437;SDS011;54537;47.972;11.662;2023-12-20T08:15:59;3.97;;;0.85;;
66437;SDS011;54537;47.972;11.662;2023-12-20T08:18:28;2.08;;;1.10;;
66437;SDS011;54537;47.972;11.662;2023-12-20T08:20:54;1.60;;;1.02;;
66437;SDS011;54537;47.972;11.662;2023-12-20T08:23:22;1.67;;;0.90;;
66437;SDS011;54537;47.972;11.662;2023-12-20T08:25:49;1.67;;;0.90;;
66437;SDS011;54537;47.972;11.662;2023-12-20T08:28:15;5.78;;;1.02;;
66437;SDS011;54537;47.972;11.662;2023-12-20T08:30:42;3.42;;;0.93;;
66437;SDS011;54537;47.972;11.662;2023-12-20T08:33:09;2.67;;;0.90;;
66437;SDS011;54537;47.972;11.662;2023-12-20T08:35:37;1.67;;;0.85;;
66437;SDS011;54537;47.972;11.662;2023-12-20T08:38:04;1.60;;;0.90;;
66437;SDS011;54537;47.972;11.662;2023-12-20T08:40:32;3.10;;;0.73;;
66437;SDS011;54537;47.972;11.662;2023-12-20T08:42:59;0.93;;;0.80;;
66437;SDS011;54537;47.972;11.662;2023-12-20T08:45:25;1.10;;;0.65;;
66437;SDS011;54537;47.972;11.662;2023-12-20T08:47:52;2.05;;;0.90;;
66437;SDS011;54537;47.972;11.662;2023-12-20T08:50:19;1.48;;;0.80;;
66437;SDS011;54537;47.972;11.662;2023-12-20T08:52:45;2.53;;;0.95;;
66437;SDS011;54537;47.972;11.662;2023-12-20T08:55:12;1.65;;;0.73;;
66437;SDS011;54537;47.972;11.662;2023-12-20T08:57:41;2.67;;;0.90;;
66437;SDS011;54537;47.972;11.662;2023-12-20T09:00:08;1.00;;;0.90;;
66437;SDS011;54537;47.972;11.662;2023-12-20T09:02:35;0.60;;;0.60;;
66437;SDS011;54537;47.972;11.662;2023-12-20T09:05:02;0.57;;;0.40;;
66437;SDS011;54537;47.972;11.662;2023-12-20T09:07:29;0.60;;;0.55;;
66437;SDS011;54537;47.972;11.662;2023-12-20T09:09:57;0.85;;;0.63;;
66437;SDS011;54537;47.972;11.662;2023-12-20T09:12:23;0.52;;;0.43;;
66437;SDS011;54537;47.972;11.662;2023-12-20T09:14:52;0.57;;;0.55;;
66437;SDS011;54537;47.972;11.662;2023-12-20T09:17:19;0.93;;;0.68;;
66437;SDS011;54537;47.972;11.662;2023-12-20T09:19:48;2.22;;;0.80;;
66437;SDS011;54537;47.972;11.662;2023-12-20T09:22:14;2.85;;;0.60;;
66437;SDS011;54537;47.972;11.662;2023-12-20T09:24:41;1.42;;;0.70;;
66437;SDS011;54537;47.972;11.662;2023-12-20T09:27:07;1.23;;;0.63;;
66437;SDS011;54537;47.972;11.662;2023-12-20T09:29:34;0.90;;;0.73;;
66437;SDS011;54537;47.972;11.662;2023-12-20T09:32:02;1.15;;;0.60;;
66437;SDS011;54537;47.972;11.662;2023-12-20T09:34:29;0.80;;;0.50;;
66437;SDS011;54537;47.972;11.662;2023-12-20T09:36:56;0.75;;;0.70;;
66437;SDS011;54537;47.972;11.662;2023-12-20T09:39:22;0.80;;;0.40;;
66437;SDS011;54537;47.972;11.662;2023-12-20T09:41:51;0.50;;;0.50;;
66437;SDS011;54537;47.972;11.662;2023-12-20T09:44:26;0.90;;;0.77;;
66437;SDS011;54537;47.972;11.662;2023-12-20T09:46:52;3.00;;;1.20;;
66437;SDS011;54537;47.972;11.662;2023-12-20T09:49:22;4.22;;;1.45;;
66437;SDS011;54537;47.972;11.662;2023-12-20T09:51:50;1.00;;;0.82;;
66437;SDS011;54537;47.972;11.662;2023-12-20T09:54:17;1.77;;;0.73;;
66437;SDS011;54537;47.972;11.662;2023-12-20T09:56:44;0.82;;;0.60;;
66437;SDS011;54537;47.972;11.662;2023-12-20T09:59:11;1.40;;;0.80;;
66437;SDS011;54537;47.972;11.662;2023-12-20T10:01:38;1.85;;;0.63;;
66437;SDS011;54537;47.972;11.662;2023-12-20T10:04:05;1.00;;;0.60;;
66437;SDS011;54537;47.972;11.662;2023-12-20T10:06:35;1.20;;;0.63;;
66437;SDS011;54537;47.972;11.662;2023-12-20T10:09:02;0.95;;;0.57;;
66437;SDS011;54537;47.972;11.662;2023-12-20T10:11:29;0.70;;;0.65;;
66437;SDS011;54537;47.972;11.662;2023-12-20T10:13:58;0.52;;;0.43;;
66437;SDS011;54537;47.972;11.662;2023-12-20T10:16:26;0.50;;;0.50;;
66437;SDS011;54537;47.972;11.662;2023-12-20T10:18:52;1.40;;;0.50;;
66437;SDS011;54537;47.972;11.662;2023-12-20T10:21:19;0.85;;;0.60;;
66437;SDS011;54537;47.972;11.662;2023-12-20T10:23:47;0.60;;;0.43;;
66437;SDS011;54537;47.972;11.662;2023-12-20T10:26:18;0.60;;;0.50;;
66437;SDS011;54537;47.972;11.662;2023-12-20T10:28:45;0.80;;;0.50;;
66437;SDS011;54537;47.972;11.662;2023-12-20T10:31:20;0.80;;;0.50;;
66437;SDS011;54537;47.972;11.662;2023-12-20T10:33:52;0.50;;;0.50;;
66437;SDS011;54537;47.972;11.662;2023-12-20T10:36:18;0.88;;;0.70;;
66437;SDS011;54537;47.972;11.662;2023-12-20T10:38:46;1.35;;;0.60;;
66437;SDS011;54537;47.972;11.662;2023-12-20T10:41:15;0.50;;;0.40;;
66437;SDS011;54537;47.972;11.662;2023-12-20T10:43:44;1.10;;;0.60;;
66437;SDS011;54537;47.972;11.662;2023-12-20T10:46:11;1.13;;;0.45;;
66437;SDS011;54537;47.972;11.662;2023-12-20T10:48:38;2.80;;;1.10;;
66437;SDS011;54537;47.972;11.662;2023-12-20T10:51:05;0.55;;;0.55;;
66437;SDS011;54537;47.972;11.662;2023-12-20T10:53:33;2.35;;;0.80;;
66437;SDS011;54537;47.972;11.662;2023-12-20T10:56:03;1.45;;;0.70;;
66437;SDS011;54537;47.972;11.662;2023-12-20T10:58:30;0.93;;;0.63;;
66437;SDS011;54537;47.972;11.662;2023-12-20T11:00:59;0.60;;;0.40;;
66437;SDS011;54537;47.972;11.662;2023-12-20T11:03:27;0.65;;;0.65;;
66437;SDS011;54537;47.972;11.662;2023-12-20T11:05:55;2.70;;;0.90;;
66437;SDS011;54537;47.972;11.662;2023-12-20T11:08:27;2.70;;;0.85;;
66437;SDS011;54537;47.972;11.662;2023-12-20T11:10:57;0.80;;;0.52;;
66437;SDS011;54537;47.972;11.662;2023-12-20T11:13:32;1.75;;;0.63;;
66437;SDS011;54537;47.972;11.662;2023-12-20T11:16:02;1.00;;;0.63;;
66437;SDS011;54537;47.972;11.662;2023-12-20T11:18:29;1.67;;;0.70;;
66437;SDS011;54537;47.972;11.662;2023-12-20T11:21:00;1.17;;;0.63;;
66437;SDS011;54537;47.972;11.662;2023-12-20T11:23:27;1.55;;;0.77;;
66437;SDS011;54537;47.972;11.662;2023-12-20T11:25:54;1.38;;;0.73;;
66437;SDS011;54537;47.972;11.662;2023-12-20T11:28:23;1.45;;;0.60;;
66437;SDS011;54537;47.972;11.662;2023-12-20T11:30:52;1.38;;;0.70;;
66437;SDS011;54537;47.972;11.662;2023-12-20T11:33:23;2.72;;;0.90;;
66437;SDS011;54537;47.972;11.662;2023-12-20T11:35:50;2.08;;;0.70;;
66437;SDS011;54537;47.972;11.662;2023-12-20T11:38:19;3.58;;;1.13;;
66437;SDS011;54537;47.972;11.662;2023-12-20T11:40:47;3.55;;;1.25;;
66437;SDS011;54537;47.972;11.662;2023-12-20T11:43:23;6.30;;;1.63;;
66437;SDS011;54537;47.972;11.662;2023-12-20T11:45:59;4.85;;;1.80;;
66437;SDS011;54537;47.972;11.662;2023-12-20T11:48:29;5.65;;;1.63;;
66437;SDS011;54537;47.972;11.662;2023-12-20T11:50:56;5.00;;;1.42;;
66437;SDS011;54537;47.972;11.662;2023-12-20T11:53:23;3.97;;;1.40;;
66437;SDS011;54537;47.972;11.662;2023-12-20T11:55:50;5.03;;;1.60;;
66437;SDS011;54537;47.972;11.662;2023-12-20T11:58:16;3.72;;;1.67;;
66437;SDS011;54537;47.972;11.662;2023-12-20T12:00:43;7.85;;;2.00;;
66437;SDS011;54537;47.972;11.662;2023-12-20T12:03:14;2.03;;;1.00;;
66437;SDS011;54537;47.972;11.662;2023-12-20T12:05:41;2.05;;;1.13;;
66437;SDS011;54537;47.972;11.662;2023-12-20T12:08:07;1.55;;;0.73;;
66437;SDS011;54537;47.972;11.662;2023-12-20T12:10:34;1.55;;;0.82;;
66437;SDS011;54537;47.972;11.662;2023-12-20T12:13:01;2.47;;;0.93;;
66437;SDS011;54537;47.972;11.662;2023-12-20T12:15:27;2.63;;;1.00;;
66437;SDS011;54537;47.972;11.662;2023-12-20T12:17:55;4.20;;;1.30;;
66437;SDS011;54537;47.972;11.662;2023-12-20T12:20:25;2.60;;;1.00;;
66437;SDS011;54537;47.972;11.662;2023-12-20T12:22:58;2.03;;;0.98;;
66437;SDS011;54537;47.972;11.662;2023-12-20T12:25:25;2.45;;;1.10;;
66437;SDS011;54537;47.972;11.662;2023-12-20T12:27:52;1.35;;;0.77;;
66437;SDS011;54537;47.972;11.662;2023-12-20T12:30:19;3.10;;;0.95;;
66437;SDS011;54537;47.972;11.662;2023-12-20T12:32:46;1.35;;;0.85;;
66437;SDS011;54537;47.972;11.662;2023-12-20T12:35:13;3.13;;;0.85;;
66437;SDS011;54537;47.972;11.662;2023-12-20T12:37:41;2.45;;;1.10;;
66437;SDS011;54537;47.972;11.662;2023-12-20T12:40:09;1.33;;;0.68;;
66437;SDS011;54537;47.972;11.662;2023-12-20T12:42:37;2.40;;;0.73;;
66437;SDS011;54537;47.972;11.662;2023-12-20T12:45:04;2.47;;;0.98;;
66437;SDS011;54537;47.972;11.662;2023-12-20T12:47:31;1.08;;;0.80;;
66437;SDS011;54537;47.972;11.662;2023-12-20T12:49:58;1.70;;;1.00;;
66437;SDS011;54537;47.972;11.662;2023-12-20T12:52:24;2.67;;;1.05;;
66437;SDS011;54537;47.972;11.662;2023-12-20T12:54:53;3.13;;;1.10;;
66437;SDS011;54537;47.972;11.662;2023-12-20T12:57:20;3.00;;;0.93;;
66437;SDS011;54537;47.972;11.662;2023-12-20T12:59:46;3.33;;;1.00;;
66437;SDS011;54537;47.972;11.662;2023-12-20T13:02:13;1.52;;;0.80;;
66437;SDS011;54537;47.972;11.662;2023-12-20T13:04:40;2.13;;;1.10;;
66437;SDS011;54537;47.972;11.662;2023-12-20T13:07:07;2.75;;;1.10;;
66437;SDS011;54537;47.972;11.662;2023-12-20T13:09:35;2.92;;;1.23;;
66437;SDS011;54537;47.972;11.662;2023-12-20T13:12:04;1.13;;;0.73;;
66437;SDS011;54537;47.972;11.662;2023-12-20T13:14:32;2.83;;;1.08;;
66437;SDS011;54537;47.972;11.662;2023-12-20T13:16:59;2.30;;;1.10;;
66437;SDS011;54537;47.972;11.662;2023-12-20T13:19:26;2.22;;;1.23;;
66437;SDS011;54537;47.972;11.662;2023-12-20T13:21:52;1.33;;;0.90;;
66437;SDS011;54537;47.972;11.662;2023-12-20T13:24:19;2.40;;;1.30;;
66437;SDS011;54537;47.972;11.662;2023-12-20T13:26:46;4.38;;;1.60;;
66437;SDS011;54537;47.972;11.662;2023-12-20T13:29:14;2.85;;;1.25;;
66437;SDS011;54537;47.972;11.662;2023-12-20T13:31:40;2.90;;;1.38;;
66437;SDS011;54537;47.972;11.662;2023-12-20T13:34:07;2.53;;;1.20;;
66437;SDS011;54537;47.972;11.662;2023-12-20T13:36:34;2.92;;;1.27;;
66437;SDS011;54537;47.972;11.662;2023-12-20T13:39:02;3.40;;;1.42;;
66437;SDS011;54537;47.972;11.662;2023-12-20T13:41:30;2.40;;;1.10;;
66437;SDS011;54537;47.972;11.662;2023-12-20T13:43:56;0.88;;;0.70;;
66437;SDS011;54537;47.972;11.662;2023-12-20T13:46:24;1.50;;;0.90;;
66437;SDS011;54537;47.972;11.662;2023-12-20T13:48:52;2.97;;;1.17;;
66437;SDS011;54537;47.972;11.662;2023-12-20T13:51:19;3.88;;;1.40;;
66437;SDS011;54537;47.972;11.662;2023-12-20T13:53:46;2.72;;;1.10;;
66437;SDS011;54537;47.972;11.662;2023-12-20T13:56:13;3.55;;;1.27;;
66437;SDS011;54537;47.972;11.662;2023-12-20T13:58:40;1.50;;;1.00;;
66437;SDS011;54537;47.972;11.662;2023-12-20T14:01:06;2.22;;;1.13;;
66437;SDS011;54537;47.972;11.662;2023-12-20T14:03:34;2.03;;;1.10;;
66437;SDS011;54537;47.972;11.662;2023-12-20T14:06:01;4.38;;;1.50;;
66437;SDS011;54537;47.972;11.662;2023-12-20T14:08:28;1.48;;;0.93;;
66437;SDS011;54537;47.972;11.662;2023-12-20T14:10:55;1.60;;;0.93;;
66437;SDS011;54537;47.972;11.662;2023-12-20T14:13:21;1.98;;;1.00;;
66437;SDS011;54537;47.972;11.662;2023-12-20T14:15:48;3.28;;;1.10;;
66437;SDS011;54537;47.972;11.662;2023-12-20T14:18:15;1.30;;;0.95;;
66437;SDS011;54537;47.972;11.662;2023-12-20T14:20:43;1.63;;;0.90;;
66437;SDS011;54537;47.972;11.662;2023-12-20T14:23:12;2.38;;;0.95;;
66437;SDS011;54537;47.972;11.662;2023-12-20T14:25:39;1.85;;;1.05;;
66437;SDS011;54537;47.972;11.662;2023-12-20T14:28:07;2.45;;;1.30;;
66437;SDS011;54537;47.972;11.662;2023-12-20T14:30:35;1.77;;;1.20;;
66437;SDS011;54537;47.972;11.662;2023-12-20T14:33:03;3.83;;;1.30;;